createdAt,value
2023-04-03T05:02:09.679Z,88.10
2023-04-03T05:07:14.805Z,88.10
2023-04-03T05:12:19.189Z,87.90
2023-04-03T05:17:25.295Z,87.70
2023-04-03T05:22:30.524Z,87.90
2023-04-03T05:27:35.715Z,88.10
2023-04-03T05:32:41.113Z,88.00
2023-04-03T05:37:45.685Z,87.80
2023-04-03T05:47:56.969Z,86.80
2023-04-03T05:53:02.216Z,87.30
2023-04-03T06:03:14.300Z,87.30
2023-04-03T06:13:23.150Z,87.10
2023-04-03T06:18:29.628Z,86.50
2023-04-03T06:33:43.449Z,85.80
2023-04-03T06:48:56.758Z,84.40
2023-04-03T06:54:00.885Z,83.90
2023-04-03T07:04:10.475Z,82.90
2023-04-03T09:23:47.820Z,77.30
2023-04-03T09:34:01.944Z,76.30
2023-04-03T09:39:09.013Z,75.60
2023-04-03T09:44:24.616Z,75.60
2023-04-03T09:54:41.069Z,75.50
2023-04-03T09:59:59.043Z,75.50
2023-04-03T10:10:23.769Z,75.00
2023-04-03T10:15:32.208Z,75.10
2023-04-03T10:20:39.580Z,75.00
2023-04-03T10:25:52.453Z,74.90
2023-04-03T10:31:07.596Z,75.40
2023-04-03T10:36:20.258Z,74.50
2023-04-03T10:41:34.200Z,74.80
2023-04-03T10:46:41.195Z,74.40
2023-04-03T10:51:47.314Z,74.30
2023-04-03T10:57:08.406Z,74.20
2023-04-03T11:02:21.639Z,73.90
2023-04-03T11:07:28.929Z,73.60
2023-04-03T11:12:43.012Z,73.60
2023-04-03T11:17:52.263Z,73.30
2023-04-03T11:23:02.794Z,73.10
2023-04-03T11:28:14.071Z,73.10
2023-04-03T11:33:29.845Z,71.10
2023-04-03T11:38:40.492Z,69.70
2023-04-03T11:43:59.198Z,69.00
2023-04-03T11:54:44.401Z,65.60
2023-04-03T11:59:50.681Z,62.70
2023-04-03T12:05:29.045Z,63.80
2023-04-03T12:10:33.028Z,62.30
2023-04-03T12:15:55.033Z,62.30
2023-04-03T12:21:00.567Z,61.60
2023-04-03T12:26:07.819Z,61.60
2023-04-03T12:31:13.723Z,60.10
2023-04-03T12:36:28.029Z,58.60
2023-04-03T12:41:39.761Z,57.70
2023-04-03T12:46:49.450Z,56.50
2023-04-03T12:51:54.682Z,56.20
2023-04-03T12:57:12.213Z,55.90
2023-04-03T13:02:29.214Z,53.90
2023-04-03T13:07:35.701Z,53.90
2023-04-03T13:12:49.064Z,53.00
2023-04-03T13:17:55.569Z,51.80
2023-04-03T13:23:03.742Z,52.50
2023-04-03T13:28:14.052Z,51.90
2023-04-03T13:33:26.188Z,52.50
2023-04-03T13:38:34.084Z,51.00
2023-04-03T13:43:41.329Z,50.90
2023-04-03T13:48:49.263Z,51.40
2023-04-03T13:53:56.092Z,50.60
2023-04-03T13:59:06.045Z,49.80
2023-04-03T14:04:19.476Z,49.30
2023-04-03T14:09:25.062Z,49.10
2023-04-03T14:14:31.691Z,49.30
2023-04-03T14:19:37.673Z,49.10
2023-04-03T14:24:41.408Z,49.20
2023-04-03T14:29:45.044Z,49.00
2023-04-03T14:34:52.129Z,49.40
2023-04-03T14:39:58.312Z,49.20
2023-04-03T14:45:02.869Z,49.30
2023-04-03T14:50:10.483Z,49.60
2023-04-03T14:55:16.725Z,49.70
2023-04-03T15:00:22.515Z,49.30
2023-04-03T15:05:27.595Z,49.30
2023-04-03T15:10:33.970Z,49.60
2023-04-03T15:15:39.252Z,49.60
2023-04-03T15:20:44.717Z,50.20
2023-04-03T15:25:51.198Z,50.90
2023-04-03T15:30:55.034Z,51.30
2023-04-03T15:36:11.863Z,51.80
2023-04-03T15:41:21.098Z,52.00
2023-04-03T15:51:30.210Z,51.90
2023-04-03T15:56:33.855Z,52.60
2023-04-03T16:01:40.069Z,52.40
2023-04-03T16:06:45.359Z,52.50
2023-04-03T16:11:48.950Z,53.70
2023-04-03T16:21:58.417Z,53.20
2023-04-03T16:27:02.074Z,54.20
2023-04-03T16:37:11.528Z,53.30
2023-04-03T16:42:15.298Z,54.10
2023-04-03T16:47:20.256Z,54.10
2023-04-03T16:52:25.217Z,54.10
2023-04-03T17:07:38.299Z,53.30
2023-04-03T17:22:51.119Z,53.80
2023-04-03T17:38:04.807Z,54.20
2023-04-03T17:53:18.118Z,54.40
2023-04-03T18:08:31.106Z,62.80
2023-04-03T18:23:50.265Z,56.00
2023-04-03T18:28:58.322Z,56.20
2023-04-03T18:39:07.374Z,56.70
2023-04-03T18:44:16.170Z,57.20
2023-04-03T18:54:25.470Z,57.30
2023-04-03T19:09:39.819Z,58.10
2023-04-03T19:24:52.625Z,59.00
2023-04-03T19:35:00.162Z,59.30
2023-04-03T19:40:06.305Z,59.90
2023-04-03T19:45:12.042Z,60.30
2023-04-03T19:55:21.078Z,60.80
2023-04-03T20:05:28.913Z,60.90
2023-04-03T20:10:35.184Z,61.80
2023-04-03T20:15:41.304Z,61.80
2023-04-03T20:26:05.981Z,61.60
2023-04-03T20:36:17.350Z,61.60
2023-04-03T20:41:22.644Z,61.70
2023-04-03T20:51:52.690Z,69.70
2023-04-03T20:56:57.695Z,62.40
2023-04-03T21:07:43.402Z,61.90
2023-04-03T21:13:25.489Z,62.70
2023-04-03T21:18:51.965Z,66.50
2023-04-03T21:23:56.549Z,63.10
2023-04-03T21:29:00.399Z,63.20
2023-04-03T21:34:05.700Z,63.40
2023-04-03T21:39:09.445Z,63.50
2023-04-03T21:44:13.012Z,63.60
2023-04-03T21:49:18.138Z,63.80
2023-04-03T21:54:22.330Z,63.90
2023-04-03T21:59:26.095Z,64.10
2023-04-03T22:04:31.193Z,64.30
2023-04-03T22:09:34.707Z,64.50
2023-04-03T22:14:38.878Z,64.60
2023-04-03T22:19:43.801Z,65.00
2023-04-03T22:24:47.321Z,65.70
2023-04-03T22:29:50.903Z,66.00
